createdAt,value
2018-06-24T00:00:25.950Z,20.40
2018-06-24T00:00:57.658Z,20.30
2018-06-24T00:01:29.394Z,20.30
2018-06-24T00:02:01.107Z,20.40
2018-06-24T00:02:32.845Z,20.40
2018-06-24T00:03:04.588Z,20.40
2018-06-24T00:03:36.300Z,20.40
2018-06-24T00:04:08.038Z,20.40
2018-06-24T00:04:39.777Z,20.40
2018-06-24T00:05:11.495Z,20.50
2018-06-24T00:05:43.265Z,20.40
2018-06-24T00:06:14.992Z,20.40
2018-06-24T00:06:46.731Z,20.40
2018-06-24T00:07:18.462Z,20.30
2018-06-24T00:07:50.201Z,20.30
2018-06-24T00:08:21.927Z,20.30
2018-06-24T00:08:53.655Z,20.30
2018-06-24T00:09:25.394Z,20.30
2018-06-24T00:09:57.323Z,20.30
2018-06-24T00:10:29.068Z,20.30
2018-06-24T00:11:00.801Z,20.30
2018-06-24T00:11:32.546Z,20.30
2018-06-24T00:12:04.309Z,20.30
2018-06-24T00:12:36.119Z,20.30
2018-06-24T00:13:07.840Z,20.30
2018-06-24T00:13:39.562Z,20.30
2018-06-24T00:14:11.352Z,20.30
2018-06-24T00:14:43.250Z,20.30
2018-06-24T00:15:15.166Z,20.30
2018-06-24T00:15:46.921Z,20.30
2018-06-24T00:16:18.646Z,20.30
2018-06-24T00:16:50.381Z,20.30
2018-06-24T00:17:22.121Z,20.30
2018-06-24T00:17:53.881Z,20.30
2018-06-24T00:18:25.805Z,20.40
2018-06-24T00:18:57.728Z,20.40
2018-06-24T00:19:29.445Z,20.40
2018-06-24T00:20:01.180Z,20.30
2018-06-24T00:20:32.926Z,20.40
2018-06-24T00:21:04.653Z,20.40
2018-06-24T00:21:36.394Z,20.40
2018-06-24T00:22:08.132Z,20.40
2018-06-24T00:22:39.880Z,20.40
2018-06-24T00:23:11.613Z,20.40
2018-06-24T00:23:43.343Z,20.30
2018-06-24T00:24:15.113Z,20.30
2018-06-24T00:24:46.952Z,20.30
2018-06-24T00:25:18.672Z,20.30
2018-06-24T00:25:50.400Z,20.20
2018-06-24T00:26:22.129Z,20.20
2018-06-24T00:26:53.843Z,20.30
2018-06-24T00:27:25.578Z,20.20
2018-06-24T00:27:57.335Z,20.20
2018-06-24T00:28:29.057Z,20.30
2018-06-24T00:29:00.980Z,20.30
2018-06-24T00:29:32.717Z,20.20
2018-06-24T00:30:04.449Z,20.30
2018-06-24T00:30:36.174Z,20.30
2018-06-24T00:31:07.981Z,20.30
2018-06-24T00:31:39.737Z,20.30
2018-06-24T00:32:11.454Z,20.30
2018-06-24T00:32:43.195Z,20.30
2018-06-24T00:33:14.916Z,20.30
2018-06-24T00:33:46.652Z,20.40
2018-06-24T00:34:18.384Z,20.30
2018-06-24T00:34:50.117Z,20.30
2018-06-24T00:35:21.837Z,20.30
2018-06-24T00:35:53.624Z,20.30
2018-06-24T00:36:25.391Z,20.30
2018-06-24T00:36:57.165Z,20.30
2018-06-24T00:37:28.937Z,20.30
2018-06-24T00:38:00.657Z,20.30
2018-06-24T00:38:32.372Z,20.30
2018-06-24T00:39:04.103Z,20.30
2018-06-24T00:39:35.827Z,20.30
2018-06-24T00:40:07.572Z,20.30
2018-06-24T00:40:39.306Z,20.30
2018-06-24T00:41:11.035Z,20.30
2018-06-24T00:41:42.778Z,20.30
2018-06-24T00:42:14.503Z,20.30
2018-06-24T00:42:46.233Z,20.30
2018-06-24T00:43:17.975Z,20.20
2018-06-24T00:43:49.705Z,20.20
2018-06-24T00:44:21.424Z,20.20
2018-06-24T00:44:53.167Z,20.30
2018-06-24T00:45:25.017Z,20.30
2018-06-24T00:45:56.735Z,20.30
2018-06-24T00:46:28.456Z,20.30
2018-06-24T00:47:00.218Z,20.30
2018-06-24T00:47:31.928Z,20.20
2018-06-24T00:48:03.653Z,20.20
2018-06-24T00:48:35.387Z,20.20
2018-06-24T00:49:07.117Z,20.20
2018-06-24T00:49:38.849Z,20.20
2018-06-24T00:50:10.596Z,20.20
2018-06-24T00:50:42.358Z,20.10
2018-06-24T00:51:14.049Z,20.10
2018-06-24T00:51:45.826Z,20.20
2018-06-24T00:52:17.533Z,20.20
2018-06-24T00:52:49.255Z,20.20
2018-06-24T00:53:21.029Z,20.20
2018-06-24T00:53:52.753Z,20.20
2018-06-24T00:54:24.474Z,20.20
2018-06-24T00:54:56.239Z,20.20
2018-06-24T00:55:27.945Z,20.20
2018-06-24T00:55:59.673Z,20.20
2018-06-24T00:56:31.607Z,20.20
2018-06-24T00:57:03.367Z,20.20
2018-06-24T00:57:35.147Z,20.20
2018-06-24T00:58:06.845Z,20.20
2018-06-24T00:58:38.562Z,20.20
2018-06-24T00:59:10.339Z,20.20
2018-06-24T00:59:42.040Z,20.20
2018-06-24T01:00:13.826Z,20.20
2018-06-24T01:00:45.550Z,20.20
2018-06-24T01:01:17.292Z,20.20
2018-06-24T01:01:49.022Z,20.20
2018-06-24T01:02:20.752Z,20.10
2018-06-24T01:02:52.462Z,20.20
2018-06-24T01:03:24.183Z,20.20
2018-06-24T01:03:55.951Z,20.10
2018-06-24T01:04:27.668Z,20.20
2018-06-24T01:04:59.403Z,20.10
2018-06-24T01:05:31.153Z,20.10
2018-06-24T01:06:02.864Z,20.10
2018-06-24T01:06:34.655Z,20.10
2018-06-24T01:07:06.430Z,20.10
2018-06-24T01:07:38.197Z,20.10
2018-06-24T01:08:10.002Z,20.10
2018-06-24T01:08:41.963Z,20.10
2018-06-24T01:09:13.733Z,20.10
2018-06-24T01:09:45.437Z,20.10
2018-06-24T01:10:49.205Z,20.00
2018-06-24T01:11:20.930Z,20.00
2018-06-24T01:11:52.675Z,20.00
2018-06-24T01:12:24.416Z,20.00
2018-06-24T01:12:56.322Z,20.00
2018-06-24T01:13:28.055Z,20.00
2018-06-24T01:13:59.804Z,20.00
2018-06-24T01:14:31.544Z,20.00
2018-06-24T01:15:03.276Z,20.00
2018-06-24T01:15:35.024Z,20.00
2018-06-24T01:16:06.774Z,20.00
2018-06-24T01:16:38.489Z,20.00
2018-06-24T01:17:10.222Z,20.00
2018-06-24T01:17:41.985Z,19.90
2018-06-24T01:18:13.709Z,19.90
2018-06-24T01:18:45.439Z,19.90
2018-06-24T01:19:17.191Z,20.00
2018-06-24T01:19:48.883Z,19.90
2018-06-24T01:20:52.641Z,19.90
2018-06-24T01:21:24.363Z,19.90
2018-06-24T01:21:56.309Z,19.90
2018-06-24T01:22:28.049Z,20.00
2018-06-24T01:22:59.804Z,19.90
2018-06-24T01:23:31.518Z,19.90
2018-06-24T01:24:03.259Z,19.90
2018-06-24T01:24:34.996Z,19.90
2018-06-24T01:25:06.715Z,19.90
2018-06-24T01:25:38.432Z,19.90
2018-06-24T01:26:10.199Z,19.90
2018-06-24T01:26:41.899Z,20.00
2018-06-24T01:27:13.614Z,20.00
2018-06-24T01:27:45.357Z,20.00
2018-06-24T01:28:17.074Z,20.00
2018-06-24T01:28:48.835Z,20.00
2018-06-24T01:29:20.584Z,20.10
2018-06-24T01:29:52.322Z,20.00
2018-06-24T01:30:24.061Z,20.00
2018-06-24T01:30:55.785Z,20.00
2018-06-24T01:31:27.534Z,20.00
2018-06-24T01:31:59.277Z,20.00
2018-06-24T01:32:31.035Z,20.00
2018-06-24T01:33:02.753Z,20.00
2018-06-24T01:33:34.577Z,20.00
2018-06-24T01:34:06.278Z,20.00
2018-06-24T01:34:38.008Z,20.00
2018-06-24T01:35:09.737Z,20.10
2018-06-24T01:35:41.456Z,20.10
2018-06-24T01:36:13.189Z,20.10
2018-06-24T01:36:44.906Z,20.10
2018-06-24T01:37:16.637Z,20.10
2018-06-24T01:37:48.341Z,20.10
2018-06-24T01:38:20.098Z,20.10
2018-06-24T01:38:51.828Z,20.10
2018-06-24T01:39:23.545Z,20.10
2018-06-24T01:39:55.266Z,20.10
2018-06-24T01:40:27.026Z,20.10
2018-06-24T01:40:58.743Z,20.10
2018-06-24T01:41:30.456Z,20.20
2018-06-24T01:42:02.235Z,20.10
2018-06-24T01:42:33.996Z,20.10
2018-06-24T01:43:05.723Z,20.10
2018-06-24T01:43:37.445Z,20.10
2018-06-24T01:44:09.188Z,20.10
2018-06-24T01:44:40.924Z,20.10
2018-06-24T01:45:12.650Z,20.10
2018-06-24T01:45:44.370Z,20.20
2018-06-24T01:46:16.105Z,20.10
2018-06-24T01:47:19.852Z,20.20
2018-06-24T01:47:51.598Z,20.10
2018-06-24T01:48:23.314Z,20.10
2018-06-24T01:48:55.037Z,20.20
2018-06-24T01:49:26.763Z,20.20
2018-06-24T01:49:58.507Z,20.20
2018-06-24T01:50:30.243Z,20.30
2018-06-24T01:51:01.962Z,20.20
2018-06-24T01:51:33.697Z,20.30
2018-06-24T01:52:05.433Z,20.30
2018-06-24T01:52:37.174Z,20.30
2018-06-24T01:53:08.901Z,20.30
2018-06-24T01:53:40.626Z,20.30
2018-06-24T01:54:12.361Z,20.20
2018-06-24T01:54:44.078Z,20.30
2018-06-24T01:55:15.806Z,20.30
2018-06-24T01:55:47.563Z,20.20
2018-06-24T01:56:19.286Z,20.30
2018-06-24T01:56:51.018Z,20.20
2018-06-24T01:57:22.775Z,20.20
2018-06-24T01:57:54.568Z,20.20
2018-06-24T01:58:26.294Z,20.20
2018-06-24T01:58:58.026Z,20.20
2018-06-24T01:59:29.758Z,20.20
2018-06-24T02:00:01.500Z,20.20
2018-06-24T02:00:33.247Z,20.20
2018-06-24T02:01:04.976Z,20.30
2018-06-24T02:01:36.703Z,20.30
2018-06-24T02:02:08.440Z,20.30
2018-06-24T02:02:40.164Z,20.30
2018-06-24T02:03:11.889Z,20.30
2018-06-24T02:03:43.644Z,20.30
2018-06-24T02:04:15.351Z,20.20
2018-06-24T02:04:47.283Z,20.20
2018-06-24T02:05:18.996Z,20.20
2018-06-24T02:05:50.734Z,20.20
2018-06-24T02:06:22.494Z,20.10
2018-06-24T02:06:54.183Z,20.10
2018-06-24T02:07:25.907Z,20.10
2018-06-24T02:07:57.688Z,20.10
2018-06-24T02:08:29.407Z,20.20
2018-06-24T02:09:01.139Z,20.20
2018-06-24T02:09:32.894Z,20.20
2018-06-24T02:10:04.599Z,20.20
2018-06-24T02:10:36.322Z,20.20
2018-06-24T02:11:08.064Z,20.20
2018-06-24T02:11:39.801Z,20.20
2018-06-24T02:12:11.522Z,20.30
2018-06-24T02:12:43.268Z,20.30
2018-06-24T02:13:15.006Z,20.30
2018-06-24T02:13:46.730Z,20.30
2018-06-24T02:14:18.472Z,20.30
2018-06-24T02:14:50.206Z,20.30
2018-06-24T02:15:21.926Z,20.30
2018-06-24T02:15:53.669Z,20.40
2018-06-24T02:16:25.395Z,20.40
2018-06-24T02:16:57.309Z,20.30
2018-06-24T02:17:29.034Z,20.40
2018-06-24T02:18:00.778Z,20.40
2018-06-24T02:18:32.493Z,20.40
2018-06-24T02:19:04.218Z,20.40
2018-06-24T02:19:35.979Z,20.40
2018-06-24T02:20:07.701Z,20.30
2018-06-24T02:20:39.439Z,20.30
2018-06-24T02:21:11.169Z,20.20
2018-06-24T02:21:42.900Z,20.20
2018-06-24T02:22:14.626Z,20.20
2018-06-24T02:22:46.439Z,20.20
2018-06-24T02:23:18.188Z,20.20
2018-06-24T02:23:49.934Z,20.20
2018-06-24T02:24:21.681Z,20.20
2018-06-24T02:24:53.404Z,20.20
2018-06-24T02:25:25.139Z,20.30
2018-06-24T02:25:56.879Z,20.30
2018-06-24T02:26:28.630Z,20.30
2018-06-24T02:27:00.377Z,20.30
2018-06-24T02:27:32.138Z,20.30
2018-06-24T02:28:03.879Z,20.30
2018-06-24T02:28:35.807Z,20.30
2018-06-24T02:29:07.538Z,20.30
2018-06-24T02:29:39.272Z,20.30
2018-06-24T02:30:11.018Z,20.30
2018-06-24T02:30:42.745Z,20.30
2018-06-24T02:31:14.459Z,20.30
2018-06-24T02:31:46.204Z,20.30
2018-06-24T02:32:17.941Z,20.30
2018-06-24T02:32:49.684Z,20.40
2018-06-24T02:33:21.656Z,20.30
2018-06-24T02:33:53.353Z,20.30
2018-06-24T02:34:25.105Z,20.40
2018-06-24T02:34:57.039Z,20.30
2018-06-24T02:35:28.832Z,20.40
2018-06-24T02:36:00.566Z,20.40
2018-06-24T02:36:32.305Z,20.40
2018-06-24T02:37:04.042Z,20.50
2018-06-24T02:37:35.783Z,20.50
2018-06-24T02:38:07.519Z,20.50
2018-06-24T02:38:39.238Z,20.50
2018-06-24T02:39:10.974Z,20.50
2018-06-24T02:39:42.697Z,20.50
2018-06-24T02:40:14.410Z,20.60
2018-06-24T02:40:46.161Z,20.60
2018-06-24T02:41:17.897Z,20.60
2018-06-24T02:41:49.630Z,20.60
2018-06-24T02:42:21.375Z,20.60
2018-06-24T02:42:53.123Z,20.60
2018-06-24T02:43:25.065Z,20.60
2018-06-24T02:43:56.810Z,20.50
2018-06-24T02:44:28.548Z,20.60
2018-06-24T02:45:00.271Z,20.60
2018-06-24T02:45:32.022Z,20.60
2018-06-24T02:46:03.762Z,20.60
2018-06-24T02:46:35.504Z,20.60
2018-06-24T02:47:07.244Z,20.50
2018-06-24T02:47:38.964Z,20.50
2018-06-24T02:48:10.699Z,20.40
2018-06-24T02:48:42.426Z,20.40
2018-06-24T02:49:14.150Z,20.40
2018-06-24T02:49:45.886Z,20.40
2018-06-24T02:50:17.604Z,20.30
2018-06-24T02:50:49.333Z,20.30
2018-06-24T02:51:21.085Z,20.30
2018-06-24T02:52:24.846Z,20.30
2018-06-24T02:52:56.570Z,20.20
2018-06-24T02:53:28.354Z,20.20
2018-06-24T02:54:00.328Z,20.30
2018-06-24T02:54:32.050Z,20.30
2018-06-24T02:55:03.788Z,20.30
2018-06-24T02:55:35.698Z,20.30
2018-06-24T02:56:07.435Z,20.30
2018-06-24T02:56:39.151Z,20.30
2018-06-24T02:57:10.881Z,20.30
2018-06-24T02:57:42.601Z,20.30
2018-06-24T02:58:14.327Z,20.30
2018-06-24T02:58:46.070Z,20.30
2018-06-24T02:59:17.801Z,20.30
2018-06-24T02:59:49.548Z,20.30
2018-06-24T03:00:21.276Z,20.20
2018-06-24T03:00:53.003Z,20.30
2018-06-24T03:01:24.720Z,20.30
2018-06-24T03:01:56.450Z,20.30
2018-06-24T03:02:28.219Z,20.30
2018-06-24T03:02:59.940Z,20.30
2018-06-24T03:03:31.679Z,20.30
2018-06-24T03:04:03.415Z,20.30
2018-06-24T03:04:35.121Z,20.30
2018-06-24T03:05:06.853Z,20.40
2018-06-24T03:05:38.619Z,20.40
2018-06-24T03:06:10.329Z,20.40
2018-06-24T03:06:42.279Z,20.50
2018-06-24T03:07:14.026Z,20.50
2018-06-24T03:07:45.745Z,20.50
2018-06-24T03:08:17.669Z,20.50
2018-06-24T03:08:49.395Z,20.50
2018-06-24T03:09:21.224Z,20.50
2018-06-24T03:09:52.943Z,20.50
2018-06-24T03:10:24.658Z,20.50
2018-06-24T03:10:56.399Z,20.50
2018-06-24T03:11:28.134Z,20.50
2018-06-24T03:11:59.865Z,20.50
2018-06-24T03:12:31.623Z,20.50
2018-06-24T03:13:03.370Z,20.50
2018-06-24T03:13:35.129Z,20.50
2018-06-24T03:14:06.858Z,20.50
2018-06-24T03:14:38.590Z,20.50
2018-06-24T03:15:10.331Z,20.50
2018-06-24T03:15:42.066Z,20.50
2018-06-24T03:16:13.789Z,20.50
2018-06-24T03:16:45.510Z,20.50
2018-06-24T03:17:17.242Z,20.50
2018-06-24T03:17:48.952Z,20.40
2018-06-24T03:18:20.698Z,20.40
2018-06-24T03:18:52.455Z,20.40
2018-06-24T03:19:24.179Z,20.40
2018-06-24T03:19:55.907Z,20.30
2018-06-24T03:20:27.646Z,20.30
2018-06-24T03:20:59.402Z,20.30
2018-06-24T03:21:31.106Z,20.30
2018-06-24T03:22:02.853Z,20.30
2018-06-24T03:22:34.558Z,20.30
2018-06-24T03:23:06.298Z,20.30
2018-06-24T03:23:38.052Z,20.30
2018-06-24T03:24:09.781Z,20.30
2018-06-24T03:24:41.508Z,20.30
2018-06-24T03:25:13.257Z,20.30
2018-06-24T03:25:44.958Z,20.30
2018-06-24T03:26:16.689Z,20.30
2018-06-24T03:26:48.411Z,20.30
2018-06-24T03:27:20.138Z,20.30
2018-06-24T03:27:51.877Z,20.30
2018-06-24T03:28:23.605Z,20.30
2018-06-24T03:28:55.350Z,20.30
2018-06-24T03:29:27.073Z,20.30
2018-06-24T03:29:58.832Z,20.30
2018-06-24T03:30:30.551Z,20.30
2018-06-24T03:31:02.269Z,20.30
2018-06-24T03:31:34.021Z,20.30
2018-06-24T03:32:05.748Z,20.30
2018-06-24T03:32:37.489Z,20.30
2018-06-24T03:33:09.276Z,20.30
2018-06-24T03:33:41.016Z,20.30
2018-06-24T03:34:12.724Z,20.30
2018-06-24T03:34:44.450Z,20.30
2018-06-24T03:35:16.177Z,20.30
2018-06-24T03:35:47.910Z,20.30
2018-06-24T03:36:19.644Z,20.30
2018-06-24T03:36:51.380Z,20.30
2018-06-24T03:37:23.106Z,20.40
2018-06-24T03:37:54.916Z,20.40
2018-06-24T03:38:58.665Z,20.40
2018-06-24T03:39:30.419Z,20.40
2018-06-24T03:40:02.181Z,20.50
2018-06-24T03:40:33.920Z,20.50
2018-06-24T03:41:05.657Z,20.50
2018-06-24T03:41:37.394Z,20.50
2018-06-24T03:42:09.131Z,20.40
2018-06-24T03:42:40.873Z,20.50
2018-06-24T03:43:12.594Z,20.50
2018-06-24T03:43:44.339Z,20.50
2018-06-24T03:44:16.074Z,20.50
2018-06-24T03:44:47.808Z,20.50
2018-06-24T03:45:19.539Z,20.60
2018-06-24T03:45:51.272Z,20.50
2018-06-24T03:46:23.193Z,20.50
2018-06-24T03:46:54.946Z,20.60
2018-06-24T03:47:26.698Z,20.60
2018-06-24T03:48:30.594Z,20.60
2018-06-24T03:49:02.381Z,20.60
2018-06-24T03:49:34.113Z,20.60
2018-06-24T03:50:05.854Z,20.60
2018-06-24T03:50:37.587Z,20.60
2018-06-24T03:51:09.306Z,20.60
2018-06-24T03:51:41.050Z,20.60
2018-06-24T03:52:12.791Z,20.60
2018-06-24T03:52:44.510Z,20.60
2018-06-24T03:53:16.223Z,20.60
2018-06-24T03:53:47.980Z,20.70
2018-06-24T03:54:19.716Z,20.70
2018-06-24T03:54:51.457Z,20.70
2018-06-24T03:55:23.197Z,20.60
2018-06-24T03:55:54.916Z,20.50
2018-06-24T03:56:26.655Z,20.50
2018-06-24T03:56:58.394Z,20.50
2018-06-24T03:57:30.116Z,20.50
2018-06-24T03:58:01.869Z,20.50
2018-06-24T03:58:33.772Z,20.50
2018-06-24T03:59:05.523Z,20.50
2018-06-24T03:59:37.274Z,20.50
2018-06-24T04:00:09.014Z,20.40
2018-06-24T04:00:40.727Z,20.40
2018-06-24T04:01:12.476Z,20.30
2018-06-24T04:01:44.196Z,20.30
2018-06-24T04:02:15.913Z,20.30
2018-06-24T04:02:47.666Z,20.30
2018-06-24T04:03:19.376Z,20.40
2018-06-24T04:03:51.111Z,20.40
2018-06-24T04:04:22.830Z,20.40
2018-06-24T04:04:54.565Z,20.40
2018-06-24T04:05:26.303Z,20.40
2018-06-24T04:05:58.023Z,20.50
2018-06-24T04:06:29.739Z,20.50
2018-06-24T04:07:01.463Z,20.50
2018-06-24T04:07:33.205Z,20.50
2018-06-24T04:08:04.928Z,20.50
2018-06-24T04:08:36.654Z,20.60
2018-06-24T04:09:08.425Z,20.60
2018-06-24T04:09:40.170Z,20.60
2018-06-24T04:10:11.913Z,20.60
2018-06-24T04:10:43.627Z,20.60
2018-06-24T04:11:15.360Z,20.60
2018-06-24T04:11:47.087Z,20.60
2018-06-24T04:12:18.817Z,20.60
2018-06-24T04:12:50.575Z,20.60
2018-06-24T04:13:22.314Z,20.60
2018-06-24T04:13:54.060Z,20.50
2018-06-24T04:14:25.785Z,20.50
2018-06-24T04:14:57.523Z,20.40
2018-06-24T04:15:29.259Z,20.40
2018-06-24T04:16:01.001Z,20.40
2018-06-24T04:16:32.813Z,20.40
2018-06-24T04:17:36.573Z,20.40
2018-06-24T04:18:08.301Z,20.40
2018-06-24T04:18:40.073Z,20.40
2018-06-24T04:19:11.823Z,20.40
2018-06-24T04:19:43.546Z,20.40
2018-06-24T04:20:15.279Z,20.40
2018-06-24T04:20:47.044Z,20.40
2018-06-24T04:21:18.782Z,20.30
2018-06-24T04:21:50.534Z,20.40
2018-06-24T04:22:22.285Z,20.30
2018-06-24T04:22:54.015Z,20.30
2018-06-24T04:23:25.750Z,20.30
2018-06-24T04:23:57.510Z,20.30
2018-06-24T04:24:29.250Z,20.30
2018-06-24T04:25:00.978Z,20.20
2018-06-24T04:25:32.714Z,20.20
2018-06-24T04:26:04.440Z,20.20
2018-06-24T04:26:36.178Z,20.30
2018-06-24T04:27:08.026Z,20.30
2018-06-24T04:27:39.793Z,20.30
2018-06-24T04:28:11.502Z,20.30
2018-06-24T04:28:43.233Z,20.30
2018-06-24T04:29:15.000Z,20.40
2018-06-24T04:29:46.898Z,20.30
2018-06-24T04:30:18.653Z,20.30
2018-06-24T04:30:50.378Z,20.30
2018-06-24T04:31:22.186Z,20.40
2018-06-24T04:31:53.961Z,20.40
2018-06-24T04:32:25.674Z,20.40
2018-06-24T04:32:57.396Z,20.50
2018-06-24T04:33:29.398Z,20.50
2018-06-24T04:34:01.135Z,20.40
2018-06-24T04:34:32.943Z,20.40
2018-06-24T04:35:04.671Z,20.40
2018-06-24T04:35:36.390Z,20.40
2018-06-24T04:36:08.117Z,20.40
2018-06-24T04:36:39.865Z,20.40
2018-06-24T04:37:11.596Z,20.40
2018-06-24T04:37:43.352Z,20.40
2018-06-24T04:38:15.189Z,20.40
2018-06-24T04:38:46.935Z,20.40
2018-06-24T04:39:18.666Z,20.40
2018-06-24T04:39:50.412Z,20.40
2018-06-24T04:40:22.145Z,20.50
2018-06-24T04:40:53.882Z,20.50
2018-06-24T04:41:25.614Z,20.50
2018-06-24T04:41:57.333Z,20.50
2018-06-24T04:42:29.068Z,20.50
2018-06-24T04:43:00.790Z,20.50
2018-06-24T04:43:32.524Z,20.60
2018-06-24T04:44:04.245Z,20.60
2018-06-24T04:44:35.982Z,20.60
2018-06-24T04:45:07.698Z,20.60
2018-06-24T04:45:39.420Z,20.60
2018-06-24T04:46:11.154Z,20.70
2018-06-24T04:46:42.879Z,20.70
2018-06-24T04:47:14.613Z,20.70
2018-06-24T04:47:46.336Z,20.70
2018-06-24T04:48:18.087Z,20.70
2018-06-24T04:48:49.817Z,20.70
2018-06-24T04:49:21.544Z,20.70
2018-06-24T04:49:53.282Z,20.70
2018-06-24T04:50:24.996Z,20.70
2018-06-24T04:50:56.726Z,20.70
2018-06-24T04:51:28.449Z,20.70
2018-06-24T04:52:00.166Z,20.70
2018-06-24T04:52:31.917Z,20.70
2018-06-24T04:53:03.650Z,20.70
2018-06-24T04:53:35.370Z,20.70
2018-06-24T04:54:07.133Z,20.70
2018-06-24T04:54:38.850Z,20.70
2018-06-24T04:55:10.576Z,20.70
2018-06-24T04:55:42.327Z,20.70
2018-06-24T04:56:14.062Z,20.70
2018-06-24T04:56:45.779Z,20.70
2018-06-24T04:57:17.523Z,20.70
2018-06-24T04:57:49.248Z,20.80
2018-06-24T04:58:20.961Z,20.80
2018-06-24T04:58:52.716Z,20.80
2018-06-24T04:59:24.443Z,20.80
2018-06-24T04:59:56.161Z,20.80
2018-06-24T05:00:27.907Z,20.80
2018-06-24T05:00:59.634Z,20.80
2018-06-24T05:01:31.363Z,20.70
2018-06-24T05:02:03.100Z,20.70
2018-06-24T05:02:34.825Z,20.70
2018-06-24T05:03:06.552Z,20.70
2018-06-24T05:03:38.286Z,20.70
2018-06-24T05:04:10.026Z,20.80
2018-06-24T05:04:41.740Z,20.80
2018-06-24T05:05:13.539Z,20.80
2018-06-24T05:05:45.376Z,20.80
2018-06-24T05:06:17.075Z,20.70
2018-06-24T05:06:48.801Z,20.70
2018-06-24T05:07:20.588Z,20.70
2018-06-24T05:07:52.290Z,20.70
2018-06-24T05:08:24.017Z,20.70
2018-06-24T05:08:55.782Z,20.70
2018-06-24T05:09:27.493Z,20.60
2018-06-24T05:09:59.259Z,20.60
2018-06-24T05:10:30.990Z,20.60
2018-06-24T05:11:02.690Z,20.60
2018-06-24T05:11:34.415Z,20.70
2018-06-24T05:12:06.187Z,20.70
2018-06-24T05:12:37.907Z,20.70
2018-06-24T05:13:09.644Z,20.60
2018-06-24T05:13:41.362Z,20.60
2018-06-24T05:14:13.097Z,20.70
2018-06-24T05:14:44.814Z,20.70
2018-06-24T05:15:48.538Z,20.70
2018-06-24T05:16:20.281Z,20.70
2018-06-24T05:17:24.002Z,20.80
2018-06-24T05:17:55.716Z,20.80
2018-06-24T05:18:27.496Z,20.80
2018-06-24T05:18:59.387Z,20.80
2018-06-24T05:19:31.101Z,20.80
2018-06-24T05:20:02.866Z,20.80
2018-06-24T05:20:34.588Z,20.80
2018-06-24T05:21:06.311Z,20.80
2018-06-24T05:21:38.046Z,20.80
2018-06-24T05:22:09.783Z,20.80
2018-06-24T05:22:41.513Z,20.90
2018-06-24T05:23:13.248Z,20.90
2018-06-24T05:23:44.977Z,20.90
2018-06-24T05:24:16.694Z,20.90
2018-06-24T05:24:48.419Z,20.90
2018-06-24T05:25:20.143Z,20.90
2018-06-24T05:25:51.886Z,20.90
2018-06-24T05:26:23.602Z,20.90
2018-06-24T05:26:55.333Z,20.90
2018-06-24T05:27:27.073Z,20.90
2018-06-24T05:27:59.029Z,20.80
2018-06-24T05:28:30.748Z,20.80
2018-06-24T05:29:02.470Z,20.80
2018-06-24T05:29:34.257Z,20.80
2018-06-24T05:30:06.025Z,20.80
2018-06-24T05:30:37.851Z,20.80
2018-06-24T05:31:09.574Z,20.80
2018-06-24T05:31:41.310Z,20.80
2018-06-24T05:32:13.041Z,20.80
2018-06-24T05:32:44.759Z,20.80
2018-06-24T05:33:16.486Z,20.80
2018-06-24T05:33:48.237Z,20.80
2018-06-24T05:34:19.956Z,20.80
2018-06-24T05:34:51.688Z,20.80
2018-06-24T05:35:23.447Z,20.90
2018-06-24T05:35:55.166Z,20.90
2018-06-24T05:36:26.895Z,20.90
2018-06-24T05:36:58.826Z,20.90
2018-06-24T05:37:30.562Z,20.90
2018-06-24T05:38:02.303Z,20.90
2018-06-24T05:38:34.026Z,20.90
2018-06-24T05:39:05.866Z,20.90
2018-06-24T05:39:37.595Z,20.90
2018-06-24T05:40:09.378Z,20.90
2018-06-24T05:40:41.105Z,20.90
2018-06-24T05:41:12.829Z,20.90
2018-06-24T05:41:44.554Z,20.90
2018-06-24T05:42:16.283Z,20.90
2018-06-24T05:42:48.382Z,20.80
2018-06-24T05:43:20.156Z,20.90
2018-06-24T05:43:51.890Z,20.80
2018-06-24T05:44:23.610Z,20.80
2018-06-24T05:45:27.395Z,20.90
2018-06-24T05:45:59.117Z,20.90
2018-06-24T05:46:30.845Z,20.80
2018-06-24T05:47:02.572Z,20.90
2018-06-24T05:47:34.299Z,20.80
2018-06-24T05:48:06.033Z,20.80
2018-06-24T05:48:37.761Z,20.80
2018-06-24T05:49:09.481Z,20.90
2018-06-24T05:49:41.214Z,20.80
2018-06-24T05:50:12.930Z,20.80
2018-06-24T05:50:44.673Z,20.80
2018-06-24T05:51:16.387Z,20.80
2018-06-24T05:51:48.118Z,20.80
2018-06-24T05:52:19.880Z,20.80
2018-06-24T05:52:51.606Z,20.90
2018-06-24T05:53:23.340Z,20.90
2018-06-24T05:53:55.083Z,20.90
2018-06-24T05:54:26.785Z,20.90
2018-06-24T05:54:58.515Z,20.90
2018-06-24T05:55:30.252Z,20.90
2018-06-24T05:56:01.995Z,20.90
2018-06-24T05:56:33.723Z,20.90
2018-06-24T05:57:05.490Z,20.90
2018-06-24T05:57:37.211Z,20.90
2018-06-24T05:58:08.942Z,20.90
2018-06-24T05:58:40.696Z,20.90
2018-06-24T05:59:12.407Z,20.90
2018-06-24T05:59:44.131Z,20.90
2018-06-24T06:00:15.871Z,20.90
2018-06-24T06:00:47.601Z,20.90
2018-06-24T06:01:19.341Z,20.90
2018-06-24T06:01:51.102Z,20.90
2018-06-24T06:02:23.133Z,20.90
2018-06-24T06:02:54.903Z,20.90
2018-06-24T06:03:26.809Z,20.90
2018-06-24T06:03:58.533Z,20.90
2018-06-24T06:04:30.273Z,20.90
2018-06-24T06:05:02.019Z,20.90
2018-06-24T06:05:33.762Z,20.90
2018-06-24T06:06:05.468Z,20.90
2018-06-24T06:06:37.198Z,20.90
2018-06-24T06:07:08.937Z,20.90
2018-06-24T06:07:40.657Z,20.90
2018-06-24T06:08:12.433Z,20.90
2018-06-24T06:08:44.170Z,20.90
2018-06-24T06:09:15.897Z,20.90
2018-06-24T06:09:47.626Z,20.90
2018-06-24T06:10:19.399Z,20.90
2018-06-24T06:10:51.316Z,20.90
2018-06-24T06:11:23.020Z,20.90
2018-06-24T06:11:54.756Z,20.90
2018-06-24T06:12:26.479Z,20.90
2018-06-24T06:12:58.224Z,20.90
2018-06-24T06:13:29.947Z,20.90
2018-06-24T06:14:01.670Z,20.90
2018-06-24T06:14:33.394Z,20.90
2018-06-24T06:15:05.197Z,20.90
2018-06-24T06:15:36.960Z,20.90
2018-06-24T06:16:08.746Z,20.90
2018-06-24T06:17:12.666Z,20.90
2018-06-24T06:17:44.379Z,20.90
2018-06-24T06:18:16.112Z,20.80
2018-06-24T06:18:47.850Z,20.90
2018-06-24T06:19:19.571Z,20.90
2018-06-24T06:19:51.308Z,20.90
2018-06-24T06:20:23.037Z,20.90
2018-06-24T06:20:54.762Z,20.90
2018-06-24T06:21:26.494Z,20.90
2018-06-24T06:21:58.235Z,20.90
2018-06-24T06:22:29.977Z,21.00
2018-06-24T06:23:01.721Z,21.00
2018-06-24T06:23:33.448Z,21.00
2018-06-24T06:24:05.171Z,21.00
2018-06-24T06:24:36.909Z,21.00
2018-06-24T06:25:40.682Z,21.00
2018-06-24T06:26:12.429Z,21.00
2018-06-24T06:26:44.153Z,21.00
2018-06-24T06:27:15.881Z,21.00
2018-06-24T06:27:47.636Z,21.00
2018-06-24T06:28:19.358Z,21.00
2018-06-24T06:28:51.088Z,21.00
2018-06-24T06:29:22.829Z,21.00
2018-06-24T06:29:54.556Z,21.00
2018-06-24T06:30:26.287Z,21.00
2018-06-24T06:30:58.038Z,21.00
2018-06-24T06:31:29.759Z,21.00
2018-06-24T06:32:01.496Z,21.00
2018-06-24T06:32:33.414Z,21.00
2018-06-24T06:33:05.149Z,21.00
2018-06-24T06:33:36.870Z,21.00
2018-06-24T06:34:08.602Z,21.00
2018-06-24T06:34:40.326Z,21.00
2018-06-24T06:35:12.057Z,20.90
2018-06-24T06:35:43.779Z,20.90
2018-06-24T06:36:15.505Z,20.90
2018-06-24T06:36:47.244Z,20.90
2018-06-24T06:37:19.178Z,20.90
2018-06-24T06:37:50.880Z,20.90
2018-06-24T06:38:22.629Z,20.90
2018-06-24T06:38:54.549Z,20.90
2018-06-24T06:39:26.280Z,20.90
2018-06-24T06:39:58.184Z,20.90
2018-06-24T06:40:29.929Z,20.90
2018-06-24T06:41:01.654Z,20.90
2018-06-24T06:41:33.385Z,20.90
2018-06-24T06:42:05.142Z,20.90
2018-06-24T06:42:36.886Z,20.90
2018-06-24T06:43:08.624Z,20.90
2018-06-24T06:43:40.358Z,20.90
2018-06-24T06:44:12.093Z,20.90
2018-06-24T06:44:43.859Z,20.90
2018-06-24T06:45:15.760Z,20.90
2018-06-24T06:45:47.776Z,20.90
2018-06-24T06:46:19.619Z,20.90
2018-06-24T06:46:51.346Z,20.90
2018-06-24T06:47:23.077Z,20.90
2018-06-24T06:47:54.799Z,20.90
2018-06-24T06:48:26.518Z,20.90
2018-06-24T06:48:58.241Z,20.90
2018-06-24T06:49:29.974Z,20.90
2018-06-24T06:50:01.717Z,20.90
2018-06-24T06:50:33.448Z,20.80
2018-06-24T06:51:05.210Z,20.80
2018-06-24T06:51:37.132Z,20.80
2018-06-24T06:52:08.870Z,20.80
2018-06-24T06:52:40.596Z,20.80
2018-06-24T06:53:12.315Z,20.80
2018-06-24T06:53:44.058Z,20.80
2018-06-24T06:54:15.783Z,20.90
2018-06-24T06:54:47.557Z,20.90
2018-06-24T06:55:19.317Z,20.90